Altamont, South Dakota
Current Conditions -  °F | °C
As of 6:54 PM on Tuesday 21 Oct 2014 (Local Time) from KCNB Reporting Station
Clear Clear  
Wind Chill: 64°   Ceiling: Unl
Heat Index: 64°   Visibility: 10mi
Dew Point: 42°   Wind: 13mph
Humidity: 45%   Direction: 130°SE
Pressure: 29.99"   Gusts: 17mph
Location:  44.7895°N, 96.7201°W
Report Text: KCNB 212354Z AUTO 13011G15KT 10SM CLR 18/06 A2999 RMK AO2 T01760055 10231 20176
Loading
Personal Weather Stations






























Interactive Weather Map
Tropical Storm Tracking
New forecast layout! Learn more

10-Day Weather Forecast

Advertisements
Track Severe Weather on mobile